Whale Point, California Weather observations

Data are for observation ending at time listed.
 Day   Time    Ave.   Ave.  Ave.  Vector   Max.   Stn.    Total    Solar   Ave.  
  of    of     Air    Rel.  Wind   Wind    Wind   Baro.  Precip.   Rad.    Soil  
Year   Day     Temp.  Hum.  Speed  Dir.    Gust   Pres.                    Temp. 
2015   (PST)    F      %     mph   deg.    mph     mb.     in.     W/m2     F   
------------------------------------------------------------------------------
 210    9:40   55.5    96    4.5   231      8.1   993.9    0.00     389    74.6
 210    9:50   55.8    96    4.5   222      7.3   993.9    0.00     424    74.6
 210   10:00   55.9    96    4.6   228      7.9   993.9    0.00     407    74.6
 210   10:10   56.0    96    4.6   225      7.7   993.9    0.00     436    74.6
 210   10:20   56.8    96    4.2   216      7.4   993.9    0.00     495    74.6
 210   10:30   57.0    96    5.0   222      8.4   993.9    0.00     519    74.6
 210   10:40   57.3    96    4.2   218      8.9   993.9    0.00     502    74.6
 210   10:50   58.3    95    3.7   217      7.6   993.9    0.00     529    74.6
 210   11:00   58.3    94    4.7   224      8.8   993.9    0.00     512    74.6
 210   11:10   58.2    92    4.6   230      8.3   993.9    0.00     502    74.6
 210   11:20   59.0    91    3.1   214      6.6   993.9    0.00     573    74.6
 210   11:30   59.4    89    4.5   230      7.4   993.9    0.00     603    74.7
 210   11:40   59.7    88    5.1   230      8.0   993.9    0.00     747    74.7
 210   11:50   59.6    88    6.3   222      9.3   993.9    0.00     738    74.8
 210   12:00   59.3    89    5.5   227      8.0   993.9    0.00     623    74.8
 210   12:10   60.5    86    3.4   212      8.3   993.9    0.00     621    74.8
 210   12:20   60.8    85    4.5   224      8.9   993.9    0.00     741    74.9
 210   12:30   61.1    84    4.2   211      9.3   993.9    0.00     741    75.0
 210   12:40   60.7    85    3.8   211      7.2   994.2    0.00     604    75.0
 210   12:50   60.9    85    4.0   212      7.7   994.2    0.00     665    75.1
 210   13:00   60.9    84    4.6   216     10.7   994.2    0.00     591    75.2
 210   13:10   60.8    85    3.7   221      7.6   994.2    0.00     563    75.3
 210   13:20   61.3    84    5.1   228      8.3   994.2    0.00     666    75.3
 210   13:30   60.7    85    5.9   224      8.8   994.2    0.00     744    75.5
 210   13:40   61.2    84    6.1   225      9.1   993.9    0.00     923    75.6
 210   13:50   62.0    82    6.7   224     10.4   993.9    0.00     819    75.7
 210   14:00   60.9    84    6.7   223     10.1   993.9    0.00     581    75.8
 210   14:10   60.9    85    6.0   229      9.7   993.9    0.00     590    75.9
 210   14:20   60.7    86    6.4   225      9.3   993.9    0.00     565    76.0
 210   14:30   60.6    86    6.6   223     10.5   993.9    0.00     485    76.1
 210   14:40   60.0    87    6.2   225      9.5   993.9    0.00     441    76.2
 210   14:50   60.1    87    4.1   224      7.7   993.9    0.00     434    76.4
 210   15:00   60.3    87    5.4   228      7.7   993.6    0.00     494    76.5
 210   15:10   60.7    86    5.2   224      8.8   993.6    0.00     712    76.6
 210   15:20   61.5    84    5.5   222      8.3   993.6    0.00     725    76.7
 210   15:30   61.8    83    6.0   215      9.1   993.6    0.00     389    76.8
 210   15:40   60.4    87    5.0   228      8.7   993.6    0.00     303    77.0
 210   15:50   60.0    87    5.1   226      8.3   993.6    0.00     315    77.1
 210   16:00   59.9    89    4.5   227      6.9   993.6    0.00     417    77.2
 210   16:10   60.5    87    5.1   218      7.5   993.6    0.00     428    77.3
 210   16:20   59.8    88    4.6   220      8.1   993.2    0.00     254    77.4
 210   16:30   59.4    89    4.5   225      7.6   993.2    0.00     224    77.5
 210   16:40   59.5    89    3.9   228      6.0   993.2    0.00     243    77.6
 210   16:50   59.8    88    3.9   227      5.5   993.2    0.00     236    77.8
 210   17:00   59.5    89    3.9   216      6.2   993.2    0.00     208    77.8
 210   17:10   59.8    88    3.5   219      5.8   993.2    0.00     159    78.0
 210   17:20   59.3    90    3.4   225      6.4   993.2    0.00     138    78.0
 210   17:30   59.3    90    2.6   223      5.8   993.2    0.00     138    78.1
 210   17:40   59.2    90    3.5   228      6.6   993.2    0.00     113    78.2
 210   17:50   58.6    91    3.7   230      6.1   993.6    0.00      77    78.3
 210   18:00   58.6    92    1.1   231      2.8   993.2    0.00      72    78.3
 210   18:10   58.5    92    1.8   250      2.9   993.2    0.00      79    78.4
 210   18:20   58.5    92    2.5   231      4.0   993.2    0.00      67    78.4
 210   18:30   58.2    92    2.9   227      4.6   993.2    0.00      31    78.5
 210   18:40   58.1    93    2.1   224      3.2   993.2    0.00      18    78.5
 210   18:50   58.2    93    1.9   232      3.4   993.6    0.00      11    78.5
 210   19:00   58.0    93    0.8   264      1.7   993.2    0.00       8    78.5
 210   19:10   58.0    93    0.4   299      1.7   993.2    0.00       4    78.6
 210   19:20   58.0    93    0.8   243      1.6   993.2    0.00       2    78.6
 210   19:30   58.0    93    2.0   219      3.5   993.2    0.00       1    78.6
 210   19:40   57.8    93    1.6   228      2.8   993.2    0.00       0    78.6
 210   19:50   57.7    94    0.8   233      2.6   993.6    0.00       0    78.6
 210   20:00   57.6    94    1.4   234      2.9   993.6    0.00       0    78.6
 210   20:10   57.6    94    0.6   275      2.0   993.6    0.00       0    78.5
 210   20:20   57.6    94    0.2   308      1.5   993.6    0.00       0    78.5
 210   20:30   57.5    94    0.8   288      2.0   993.9    0.00       0    78.5
 210   20:40   57.5    94    0.8   250      2.3   993.9    0.00       0    78.5
 210   20:50   57.5    94    0.9   229      2.0   993.9    0.00       0    78.4
 210   21:00   57.4    94    0.8   257      2.6   993.9    0.00       0    78.4
 210   21:10   57.4    94    1.3   227      3.4   994.2    0.00       0    78.3
 210   21:20   57.3    94    0.4   357      1.6   994.2    0.00       0    78.3
 210   21:30   57.2    95    0.7   291      2.4   994.2    0.00       0    78.3
 210   21:40   57.2    95    0.4   300      2.3   994.2    0.00       0    78.2
 210   21:50   57.1    95    1.1    37      2.4   994.2    0.00       0    78.2
 210   22:00   56.9    95    1.3    34      3.7   994.2    0.00       0    78.1
 210   22:10   56.9    95    0.3     6      1.1   994.2    0.00       0    78.1
 210   22:20   56.9    95    0.4   322      1.4   994.2    0.00       0    78.0
 210   22:30   57.1    95    0.2   258      1.0   994.2    0.00       0    77.9
 210   22:40   57.1    95    0.7   208      2.4   994.2    0.00       0    77.9
 210   22:50   57.0    95    0.7    21      1.5   994.6    0.00       0    77.8
 210   23:00   56.9    95    0.7   324      2.3   994.6    0.00       0    77.8
 210   23:10   56.9    95    1.2    56      2.7   994.6    0.00       0    77.7
 210   23:20   56.8    95    1.7    11      3.1   994.6    0.00       0    77.6
 210   23:30   56.6    95    1.1    17      2.9   994.6    0.00       0    77.6
 210   23:40   56.4    95    2.1    36      3.1   994.6    0.00       0    77.5
 210   23:50   56.4    95    1.1    20      3.1   994.6    0.00       0    77.5
 211    0:00   56.3    95    1.0   328      3.2   994.6    0.00       0    77.4
 211    0:10   56.2    95    0.5   355      2.6   994.6    0.00       0    77.3
 211    0:20   56.3    95    1.0    64      2.2   994.6    0.00       0    77.3
 211    0:30   56.3    95    0.8    35      1.8   994.6    0.00       0    77.2
 211    0:40   56.1    95    0.2   118      1.4   994.6    0.00       0    77.1
 211    0:50   56.3    96    0.5   155      1.8   994.6    0.00       0    77.1
 211    1:00   56.6    96    0.5   224      2.3   994.6    0.00       0    77.0
 211    1:10   56.4    96    2.1   359      5.0   994.6    0.00       0    76.9
 211    1:20   56.0    96    2.5    20      4.7   994.2    0.00       0    76.9
 211    1:30   55.8    96    1.8   342      4.3   994.2    0.00       0    76.8
 211    1:40   55.7    96    0.6   349      1.8   994.2    0.00       0    76.7
 211    1:50   55.9    96    0.6   171      2.3   994.2    0.00       0    76.7
 211    2:00   56.3    96    0.7   111      2.0   994.2    0.00       0    76.6
 211    2:10   56.3    96    0.4    38      1.7   994.2    0.00       0    76.6
 211    2:20   56.1    96    0.5    14      1.8   994.2    0.00       0    76.5
 211    2:30   56.0    96    2.0    34      2.9   994.2    0.00       0    76.4
 211    2:40   55.9    96    1.5    27      2.9   994.2    0.00       0    76.4
 211    2:50   56.0    96    1.3   207      2.4   994.2    0.00       0    76.3
 211    3:00   56.4    96    0.3   230      1.8   994.6    0.00       0    76.2
 211    3:10   56.4    96    0.4    34      1.8   994.6    0.00       0    76.2
 211    3:20   56.3    96    1.7    60      2.9   994.6    0.00       0    76.1
 211    3:30   56.2    96    0.4    65      2.0   994.6    0.00       0    76.0
 211    3:40   56.3    96    1.1    50      2.3   994.6    0.00       0    76.0
 211    3:50   56.0    96    2.7    14      4.2   994.6    0.00       0    75.9
 211    4:00   55.9    96    3.6    50      5.2   994.6    0.00       0    75.9
 211    4:10   55.7    96    3.0    40      5.3   994.6    0.00       0    75.8
 211    4:20   55.3    96    1.9    14      3.9   994.6    0.00       0    75.7
 211    4:30   55.2    96    1.2    40      3.8   994.6    0.00       0    75.7
 211    4:40   55.7    96    1.1   201      2.9   994.9    0.00       0    75.6
 211    4:50   56.0    96    0.3    36      1.7   994.9    0.00       0    75.6
 211    5:00   56.1    96    1.6    25      2.6   994.9    0.00       0    75.5
 211    5:10   56.1    96    1.5    50      3.3   994.9    0.00       1    75.5
 211    5:20   56.1    96    0.4    56      1.7   994.9    0.00       3    75.4
 211    5:30   56.2    96    0.1   173      0.7   995.3    0.00       4    75.3
 211    5:40   56.4    96    0.0   206      0.6   995.3    0.00       5    75.3
 211    5:50   56.5    96    0.1   275      0.9   995.6    0.00       8    75.2
 211    6:00   56.5    96    0.6   167      1.4   995.9    0.00      17    75.1
 211    6:10   56.7    96    0.1   106      0.9   995.9    0.01      28    75.1
 211    6:20   56.4    96    0.8    24      2.0   995.9    0.00      39    75.0
 211    6:30   56.5    96    0.8    15      2.0   995.9    0.00      56    75.0
 211    6:40   56.8    96    0.6    42      1.8   995.9    0.00      66    74.9
 211    6:50   56.9    96    0.5    81      1.8   995.9    0.00     101    74.9
 211    7:00   57.1    96    0.7   228      1.8   995.9    0.00     119    74.8
 211    7:10   57.1    96    0.4    32      1.8   995.9    0.00     118    74.7
 211    7:20   57.1    96    0.8    34      1.8   995.9    0.00     125    74.7
 211    7:30   57.4    96    1.0   274      2.9   995.9    0.00     160    74.6
 211    7:40   57.5    96    2.3   233      5.2   995.9    0.00     143    74.6
 211    7:50   57.3    96    2.9   229      6.0   996.3    0.00     146    74.6
 211    8:00   57.3    96    2.6   252      4.6   996.3    0.00     174    74.5
 211    8:10   57.5    96    2.5   215      5.7   995.9    0.00     219    74.5
 211    8:20   57.4    96    3.4   220      7.2   995.9    0.00     186    74.4
 211    8:30   57.6    96    3.4   200      7.2   996.3    0.00     243    74.4
 211    8:40   58.0    96    3.5   211      6.9   996.3    0.00     287    74.4
 211    8:50   58.3    96    3.2   213      5.2   996.3    0.00     329    74.3
 211    9:00   58.4    96    4.1   214      7.1   996.3    0.00     370    74.3
 211    9:10   58.4    95    3.6   234      6.1   996.6    0.00     316    74.3
 211    9:20   58.7    95    4.1   226      6.3   996.6    0.00     425    74.3
 211    9:30   59.4    93    4.0   217      7.5   996.6    0.00     415    74.3

Return to Whale Point graphs page.


Western Regional Climate Center,wrcc@dri.edu